This is the latest recevied weather packets stored in our database for station/object KB4MOX. If no packets are shown the sender has not sent any weather packets the latest 10 day(s).
| Time | Temp. | Humidity | Pressure | Rain* | Wind** | Luminosity | Snow |
|---|---|---|---|---|---|---|---|
| 1778154461 | 19.44° C | 98% | 1010.4 hPa | 8.89 mm | - | 18 W/m² | - |
| 1778154158 | 19.44° C | 98% | 1010.6 hPa | 18.54 mm | - | 6 W/m² | - |
| 1778153856 | 19.44° C | 98% | 1010.3 hPa | 18.03 mm | - | 3 W/m² | - |
| 1778153552 | 18.89° C | 98% | 1010.6 hPa | 9.65 mm | - | 2 W/m² | - |
| 1778153250 | 18.89° C | 98% | 1010.8 hPa | 3.05 mm | - | 3 W/m² | - |
| 1778152947 | 18.89° C | 98% | 1010.6 hPa | 0 mm | - | 2 W/m² | - |
| 1778152644 | 18.89° C | 98% | 1010.3 hPa | 0 mm | - | 2 W/m² | - |
| 1778152341 | 18.89° C | 98% | 1009.2 hPa | 0 mm | - | 3 W/m² | - |
| 1778152037 | 18.89° C | 98% | 1009 hPa | 0 mm | - | 4 W/m² | - |
| 1778151734 | 18.89° C | 98% | 1008.9 hPa | 3.05 mm | - | 2 W/m² | - |
| 1778151431 | 18.89° C | 98% | 1009.5 hPa | 3.05 mm | - | 2 W/m² | - |
| 1778151126 | 18.89° C | 98% | 1008.8 hPa | 0 mm | - | 1 W/m² | - |
| 1778150824 | 18.89° C | 98% | 1010.3 hPa | 0 mm | - | 0 W/m² | - |
| 1778150520 | 18.89° C | 98% | 1010.9 hPa | 1.78 mm | - | 0 W/m² | - |
| 1778150216 | 18.89° C | 98% | 1011.3 hPa | 4.83 mm | - | 0 W/m² | - |
| 1778149913 | 18.89° C | 98% | 1011.1 hPa | 3.05 mm | - | 0 W/m² | - |
| 1778149609 | 18.89° C | 97% | 1011.1 hPa | 3.05 mm | - | 0 W/m² | - |
| 1778149306 | 18.89° C | 98% | 1011.4 hPa | 0 mm | - | 0 W/m² | - |
| 1778149002 | 18.89° C | 97% | 1012.4 hPa | 0 mm | - | 0 W/m² | - |
| 1778148698 | 18.89° C | 97% | 1012.3 hPa | 0 mm | - | 0 W/m² | - |
| 1778148395 | 18.89° C | 97% | 1012 hPa | 0 mm | - | 0 W/m² | - |
| 1778148093 | 18.89° C | 97% | 1011.5 hPa | 0 mm | - | 0 W/m² | - |
| 1778147791 | 18.89° C | 97% | 1011.5 hPa | 0 mm | - | 0 W/m² | - |
| 1778147488 | 18.89° C | 97% | 1011.9 hPa | 0 mm | - | 0 W/m² | - |
| 1778147184 | 18.89° C | 97% | 1012 hPa | 1.27 mm | - | 0 W/m² | - |
* Rain latest hour (hover to see other rain measurements)
** Current wind speed in m/s (hover to see current wind gust speed)